Strona główna
METAR-TAF:

METAR-TAF

Lotnisko :

Hrabstwo Franklin, Vermont, Stany Zjednoczone

Szerokość geograficzna: 44-56-25N, Długość geograficzna: 073-05-51W, wysokość: 69 m

Aktualna obserwacja pogody

Raport powstał 16 minut temu, godzina 22:15 UTC
Wiatr 4 kt od wschód
Temperatura -4°C
Wilgotność 58%
Ciśnienie 1037 hPa
Widzialność: 16.1 km
Rozproszone chmury na wysokości 10000 ft

METAR: KFSO 122215Z AUTO 10004KT 10SM SCT100 M04/M11 A3062 RMK AO2 T10431115

czas: 17:31 (22:31 UTC)


TAF: brakujący

Obserwacja i prognoza pogody dla ponad 4000 lotnisk (raport METAR i TAF).

Dostępne stacje oznaczono żółtymi i czerwonymi punktami na mapie.

Najedź kursorem aby zobaczyć nazwę stacji.

Kliknij aby zobaczyć obserwacje i prognozy pogody.

Aby zmienić mapę: kliknij na zielony przycisk z czarnym krzyżykiem, aby powiększyć; na zielony przycisk z myślnikiem, aby pomniejszyć; na zielone strzałki, aby przejść do map sąsiednich.


METAR-TAF: